Cheniere, Louisiana
Current Conditions -  °F | °C
As of 9:53 AM on Thursday 23 Oct 2014 (Local Time) from KMLU Reporting Station
Clear Clear  
Wind Chill: 57°   Ceiling: Unl
Heat Index: 57°   Visibility: 10mi
Dew Point: 49°   Wind: 6mph
Humidity: 74%   Direction: 60°ENE
Pressure: 30.19"   Gusts: NA
Location:  32.3932°N, 92.2204°W
Report Text: KMLU 231453Z 06005KT 10SM CLR 14/09 A3019 RMK AO2 SLP222 T01390094 53012
Loading
Personal Weather Stations






























Interactive Weather Map
Tropical Storm Tracking
New forecast layout! Learn more

10-Day Weather Forecast

Advertisements
Track Severe Weather on mobile